createdAt,value
2023-08-15T00:02:26.455Z,7.72
2023-08-15T00:04:54.274Z,6.53
2023-08-15T00:07:22.424Z,6.38
2023-08-15T00:09:51.721Z,5.72
2023-08-15T00:12:19.415Z,4.72
2023-08-15T00:14:47.365Z,6.95
2023-08-15T00:17:15.098Z,7.68
2023-08-15T00:19:42.946Z,9.80
2023-08-15T00:22:10.855Z,7.72
2023-08-15T00:24:38.992Z,6.25
2023-08-15T00:27:08.357Z,6.97
2023-08-15T00:29:36.590Z,7.00
2023-08-15T00:32:04.727Z,6.70
2023-08-15T00:34:32.737Z,6.80
2023-08-15T00:37:00.478Z,9.05
2023-08-15T00:39:28.221Z,5.85
2023-08-15T00:41:57.280Z,6.57
2023-08-15T00:44:26.490Z,6.68
2023-08-15T00:46:54.311Z,6.28
2023-08-15T00:49:22.443Z,5.68
2023-08-15T00:51:51.471Z,7.90
2023-08-15T00:54:19.987Z,6.15
2023-08-15T00:56:47.837Z,5.85
2023-08-15T00:59:16.190Z,5.53
2023-08-15T01:01:45.623Z,6.38
2023-08-15T01:04:14.266Z,6.45
2023-08-15T01:06:42.015Z,8.68
2023-08-15T01:09:09.906Z,8.48
2023-08-15T01:11:48.578Z,6.93
2023-08-15T01:14:20.803Z,5.57
2023-08-15T01:16:52.829Z,7.03
2023-08-15T01:19:32.073Z,7.72
2023-08-15T01:22:01.168Z,7.68
2023-08-15T01:24:32.057Z,7.40
2023-08-15T01:26:59.800Z,7.82
2023-08-15T01:29:27.589Z,5.57
2023-08-15T01:32:02.724Z,6.70
2023-08-15T01:34:36.783Z,8.25
2023-08-15T01:37:09.694Z,7.90
2023-08-15T01:42:10.842Z,6.85
2023-08-15T01:44:39.674Z,8.05
2023-08-15T01:47:08.694Z,6.97
2023-08-15T01:49:36.896Z,9.98
2023-08-15T01:52:05.123Z,6.55
2023-08-15T01:54:33.038Z,6.15
2023-08-15T01:57:02.146Z,6.50
2023-08-15T01:59:30.056Z,7.63
2023-08-15T02:01:59.085Z,8.68
2023-08-15T02:04:26.867Z,7.57
2023-08-15T02:06:54.626Z,6.30
2023-08-15T02:09:22.431Z,6.80
2023-08-15T02:11:50.163Z,6.47
2023-08-15T02:14:19.257Z,7.20
2023-08-15T02:16:47.053Z,11.07
2023-08-15T02:19:14.857Z,6.05
2023-08-15T02:21:42.603Z,6.60
2023-08-15T02:24:10.525Z,5.40
2023-08-15T02:26:38.678Z,7.50
2023-08-15T02:29:06.755Z,8.18
2023-08-15T02:31:36.570Z,7.15
2023-08-15T02:34:05.393Z,7.68
2023-08-15T02:36:33.193Z,6.00
2023-08-15T02:39:00.887Z,9.75
2023-08-15T02:41:28.618Z,7.82
2023-08-15T02:43:56.472Z,6.13
2023-08-15T02:46:26.314Z,6.03
2023-08-15T02:48:55.579Z,5.18
2023-08-15T02:51:23.479Z,6.03
2023-08-15T02:53:51.294Z,4.45
2023-08-15T02:56:19.102Z,7.20
2023-08-15T02:58:47.033Z,10.93
2023-08-15T03:01:15.046Z,8.52
2023-08-15T03:03:42.873Z,6.78
2023-08-15T03:06:11.967Z,6.63
2023-08-15T03:08:39.785Z,8.63
2023-08-15T03:11:07.826Z,7.85
2023-08-15T03:13:35.612Z,4.47
2023-08-15T03:16:03.796Z,5.85
2023-08-15T03:18:33.851Z,7.18
2023-08-15T03:21:03.740Z,7.22
2023-08-15T03:23:34.003Z,6.40
2023-08-15T03:26:03.212Z,8.00
2023-08-15T03:28:35.569Z,7.88
2023-08-15T03:31:07.387Z,6.53
2023-08-15T03:33:39.424Z,7.60
2023-08-15T03:36:08.895Z,8.30
2023-08-15T03:38:39.432Z,10.00
2023-08-15T03:41:08.739Z,8.02
2023-08-15T03:43:37.878Z,8.82
2023-08-15T03:46:07.531Z,4.80
2023-08-15T03:48:37.678Z,7.45
2023-08-15T03:51:06.606Z,9.07
2023-08-15T03:53:34.421Z,7.32
2023-08-15T03:56:06.223Z,7.70
2023-08-15T03:58:34.568Z,6.95
2023-08-15T04:01:03.512Z,5.40
2023-08-15T04:03:32.647Z,5.88
2023-08-15T04:06:00.681Z,8.20
2023-08-15T04:08:28.472Z,8.75
2023-08-15T04:10:56.481Z,7.18
2023-08-15T04:13:25.734Z,9.88
2023-08-15T04:15:53.566Z,7.13
2023-08-15T04:18:21.410Z,8.65
2023-08-15T04:20:49.208Z,8.18
2023-08-15T04:23:16.955Z,6.18
2023-08-15T04:25:45.148Z,6.63
2023-08-15T04:28:13.069Z,6.75
2023-08-15T04:30:42.559Z,11.32
2023-08-15T04:33:12.570Z,9.70
2023-08-15T04:35:40.702Z,8.13
2023-08-15T04:38:09.118Z,7.13
2023-08-15T04:40:41.404Z,9.90
2023-08-15T04:43:10.830Z,7.90
2023-08-15T04:45:42.107Z,8.65
2023-08-15T04:48:14.170Z,9.38
2023-08-15T04:50:42.361Z,9.63
2023-08-15T04:53:10.274Z,8.02
2023-08-15T04:55:38.885Z,8.13
2023-08-15T04:58:10.329Z,10.05
2023-08-15T05:00:39.157Z,10.57
2023-08-15T05:03:07.868Z,7.47
2023-08-15T05:05:38.067Z,8.02
2023-08-15T05:08:07.783Z,10.68
2023-08-15T05:10:35.647Z,8.55
2023-08-15T05:13:04.352Z,6.55
2023-08-15T05:15:32.677Z,7.70
2023-08-15T05:18:01.019Z,6.53
2023-08-15T05:20:28.976Z,6.20
2023-08-15T05:22:58.107Z,8.05
2023-08-15T05:25:26.784Z,6.13
2023-08-15T05:27:55.063Z,7.28
2023-08-15T05:30:22.835Z,8.00
2023-08-15T05:32:51.326Z,7.22
2023-08-15T05:35:19.551Z,8.25
2023-08-15T05:37:47.461Z,9.13
2023-08-15T05:40:17.290Z,7.22
2023-08-15T05:42:45.129Z,9.15
2023-08-15T05:45:12.881Z,6.15
2023-08-15T05:47:40.717Z,5.97
2023-08-15T05:50:10.043Z,9.07
2023-08-15T05:52:37.950Z,7.93
2023-08-15T05:55:07.851Z,6.22
2023-08-15T05:57:37.819Z,6.55
2023-08-15T06:00:07.631Z,8.23
2023-08-15T06:02:41.278Z,8.80
2023-08-15T06:05:09.659Z,7.65
2023-08-15T06:07:37.608Z,8.18
2023-08-15T06:10:06.449Z,9.13
2023-08-15T06:12:34.329Z,6.35
2023-08-15T06:15:03.942Z,5.22
2023-08-15T06:17:31.815Z,7.20
2023-08-15T06:19:59.633Z,5.50
2023-08-15T06:22:27.404Z,5.80
2023-08-15T06:24:55.345Z,8.30
2023-08-15T06:27:23.310Z,8.30
2023-08-15T06:29:51.359Z,6.38
2023-08-15T06:32:28.170Z,7.20
2023-08-15T06:34:56.045Z,5.93
2023-08-15T06:37:24.644Z,5.78
2023-08-15T06:39:52.415Z,9.60
2023-08-15T06:42:20.266Z,6.30
2023-08-15T06:44:48.211Z,7.85
2023-08-15T06:47:16.222Z,7.88
2023-08-15T06:49:45.354Z,10.70
2023-08-15T06:52:13.112Z,7.78
2023-08-15T06:54:40.945Z,14.57
2023-08-15T06:57:08.995Z,9.50
2023-08-15T06:59:37.191Z,6.28
2023-08-15T07:02:07.085Z,9.13
2023-08-15T07:04:37.891Z,7.05
2023-08-15T07:07:07.799Z,8.05
2023-08-15T07:09:36.992Z,35.42
2023-08-15T07:12:06.212Z,16.67
2023-08-15T07:14:34.560Z,9.45
2023-08-15T07:17:02.781Z,17.05
2023-08-15T07:19:30.614Z,19.83
2023-08-15T07:21:58.367Z,51.88
2023-08-15T07:24:27.670Z,55.72
2023-08-15T07:26:55.569Z,54.83
2023-08-15T07:29:23.432Z,50.55
2023-08-15T07:31:52.195Z,47.42
2023-08-15T07:34:20.139Z,50.83
2023-08-15T07:36:47.914Z,76.20
2023-08-15T07:39:15.817Z,90.95
2023-08-15T07:41:44.881Z,107.72
2023-08-15T07:44:12.764Z,88.55
2023-08-15T07:46:41.011Z,82.53
2023-08-15T07:49:09.597Z,98.40
2023-08-15T07:51:37.877Z,95.47
2023-08-15T07:54:06.671Z,90.78
2023-08-15T07:56:35.189Z,72.35
2023-08-15T07:59:05.363Z,76.75
2023-08-15T08:01:33.576Z,74.05
2023-08-15T08:04:02.664Z,58.85
2023-08-15T08:09:01.531Z,56.08
2023-08-15T08:11:29.275Z,62.08
2023-08-15T08:13:57.161Z,86.20
2023-08-15T08:16:26.364Z,102.45
2023-08-15T08:18:54.220Z,120.88
2023-08-15T08:21:22.166Z,147.65
2023-08-15T08:23:49.960Z,148.52
2023-08-15T08:26:17.783Z,148.43
2023-08-15T08:28:45.538Z,143.45
2023-08-15T08:31:13.338Z,129.60
2023-08-15T08:33:42.524Z,110.25
2023-08-15T08:36:10.643Z,108.65
2023-08-15T08:38:39.119Z,86.93
2023-08-15T08:41:07.091Z,80.53
2023-08-15T08:43:35.102Z,73.55
2023-08-15T08:46:06.645Z,61.88
2023-08-15T08:48:36.381Z,53.22
2023-08-15T08:51:07.959Z,50.08
2023-08-15T08:53:36.107Z,48.03
2023-08-15T08:56:04.071Z,41.95
2023-08-15T08:58:32.843Z,38.45
2023-08-15T09:01:03.629Z,32.75
2023-08-15T09:03:31.941Z,30.75
2023-08-15T09:06:00.027Z,32.88
2023-08-15T09:08:29.367Z,27.13
2023-08-15T09:10:57.212Z,26.60
2023-08-15T09:13:25.389Z,25.20
2023-08-15T09:15:57.580Z,26.45
2023-08-15T09:18:25.776Z,27.33
2023-08-15T09:20:53.559Z,42.20
2023-08-15T09:23:21.554Z,60.35
2023-08-15T09:25:54.867Z,70.40
2023-08-15T09:28:24.009Z,78.22
2023-08-15T09:30:54.429Z,87.15
2023-08-15T09:33:23.365Z,87.63
2023-08-15T09:35:58.697Z,96.15
2023-08-15T09:38:28.050Z,122.03
2023-08-15T09:40:57.581Z,127.95
2023-08-15T09:43:25.664Z,123.65
2023-08-15T09:45:54.463Z,111.10
2023-08-15T09:48:22.577Z,105.82
2023-08-15T09:50:50.845Z,90.88
2023-08-15T09:53:18.753Z,85.70
2023-08-15T09:55:46.738Z,71.60
2023-08-15T09:58:17.856Z,65.10
2023-08-15T10:00:49.979Z,56.10
2023-08-15T10:03:21.143Z,44.88
2023-08-15T10:05:55.394Z,39.75
2023-08-15T10:08:24.660Z,30.10
2023-08-15T10:10:54.187Z,29.27
2023-08-15T10:13:27.923Z,23.33
2023-08-15T10:15:56.809Z,21.75
2023-08-15T10:18:25.908Z,18.05
2023-08-15T10:20:55.176Z,15.35
2023-08-15T10:23:26.408Z,14.02
2023-08-15T10:25:55.241Z,13.30
2023-08-15T10:28:24.637Z,10.13
2023-08-15T10:30:52.884Z,10.82
2023-08-15T10:33:22.836Z,8.77
2023-08-15T10:36:07.992Z,8.32
2023-08-15T10:38:40.945Z,9.93
2023-08-15T10:41:14.478Z,7.40
2023-08-15T10:43:48.305Z,9.18
2023-08-15T10:46:18.155Z,4.90
2023-08-15T10:49:01.745Z,6.85
2023-08-15T10:51:33.338Z,4.15
2023-08-15T10:54:02.564Z,7.03
2023-08-15T10:56:31.814Z,4.80
2023-08-15T10:59:06.805Z,3.58
2023-08-15T11:01:35.012Z,8.23
2023-08-15T11:04:04.637Z,2.95
2023-08-15T11:06:32.713Z,3.53
2023-08-15T11:09:01.070Z,2.67
2023-08-15T11:11:28.908Z,3.67
2023-08-15T11:13:59.201Z,5.07
2023-08-15T11:16:28.400Z,2.28
2023-08-15T11:18:58.689Z,5.78
2023-08-15T11:21:30.285Z,2.97
2023-08-15T11:24:00.391Z,2.77
2023-08-15T11:26:28.452Z,5.10
2023-08-15T11:28:56.224Z,3.35
2023-08-15T11:31:24.452Z,3.53
2023-08-15T11:33:54.083Z,3.63
2023-08-15T11:36:23.585Z,4.05
2023-08-15T11:38:51.472Z,5.68
2023-08-15T11:41:20.298Z,2.45
2023-08-15T11:43:49.382Z,4.28
2023-08-15T11:46:17.281Z,3.97
2023-08-15T11:48:46.726Z,27.35
2023-08-15T11:51:22.338Z,35.08
2023-08-15T11:53:51.495Z,45.92
2023-08-15T11:56:19.338Z,46.30
2023-08-15T11:58:47.586Z,41.83
2023-08-15T12:01:15.667Z,88.20
2023-08-15T12:03:43.506Z,85.65
2023-08-15T12:06:13.944Z,114.43
2023-08-15T12:08:47.024Z,130.60
2023-08-15T12:11:20.253Z,111.72
2023-08-15T12:13:48.224Z,116.07
2023-08-15T12:16:16.121Z,96.85
2023-08-15T12:18:44.031Z,73.32
2023-08-15T12:21:14.058Z,55.40
2023-08-15T12:23:44.702Z,48.70
2023-08-15T12:26:12.596Z,45.55
2023-08-15T12:28:40.459Z,65.85
2023-08-15T12:31:09.496Z,103.70
2023-08-15T12:36:08.259Z,112.88
2023-08-15T12:38:36.066Z,96.63
2023-08-15T12:41:08.258Z,88.60
2023-08-15T12:43:36.114Z,95.35
2023-08-15T12:46:05.270Z,83.70
2023-08-15T12:48:33.177Z,84.97
2023-08-15T12:51:01.232Z,72.05
2023-08-15T12:53:29.108Z,81.05
2023-08-15T12:55:57.000Z,136.50
2023-08-15T12:58:26.126Z,149.98
2023-08-15T13:00:54.073Z,158.43
2023-08-15T13:03:21.931Z,151.57
2023-08-15T13:05:50.650Z,138.60
2023-08-15T13:08:20.374Z,109.53
2023-08-15T13:10:48.852Z,101.55
2023-08-15T13:13:16.704Z,72.78
2023-08-15T13:15:45.820Z,72.93
2023-08-15T13:18:13.603Z,70.95
2023-08-15T13:20:41.491Z,54.25
2023-08-15T13:23:09.622Z,46.83
2023-08-15T13:25:37.963Z,40.50
2023-08-15T13:28:06.759Z,35.40
2023-08-15T13:30:34.585Z,29.63
2023-08-15T13:33:04.485Z,24.50
2023-08-15T13:35:32.841Z,25.17
2023-08-15T13:38:00.631Z,16.48
2023-08-15T13:40:28.331Z,15.60
2023-08-15T13:42:56.176Z,15.23
2023-08-15T13:45:24.123Z,13.93
2023-08-15T13:47:51.959Z,12.95
2023-08-15T13:50:21.232Z,18.40
2023-08-15T13:52:49.047Z,13.75
2023-08-15T13:55:17.426Z,15.63
2023-08-15T13:57:45.239Z,17.83
2023-08-15T14:00:13.778Z,15.43
2023-08-15T14:02:41.783Z,7.80
2023-08-15T14:05:10.434Z,7.00
2023-08-15T14:07:39.601Z,8.27
2023-08-15T14:10:08.265Z,11.60
2023-08-15T14:12:36.236Z,8.73
2023-08-15T14:15:04.232Z,9.32
2023-08-15T14:17:31.992Z,6.60
2023-08-15T14:19:59.702Z,8.40
2023-08-15T14:22:28.042Z,7.93
2023-08-15T14:24:57.153Z,3.63
2023-08-15T14:27:25.002Z,6.50
2023-08-15T14:29:52.927Z,6.28
2023-08-15T14:32:21.147Z,4.80
2023-08-15T14:34:50.554Z,5.13
2023-08-15T14:37:18.321Z,7.63
2023-08-15T14:39:46.351Z,18.42
2023-08-15T14:42:15.662Z,33.85
2023-08-15T14:44:43.402Z,48.58
2023-08-15T14:47:11.341Z,44.80
2023-08-15T14:49:39.150Z,42.00
2023-08-15T14:52:07.365Z,35.22
2023-08-15T14:54:36.775Z,34.92
2023-08-15T14:57:05.202Z,51.15
2023-08-15T14:59:34.452Z,72.38
2023-08-15T15:02:02.998Z,76.25
2023-08-15T15:04:31.213Z,73.05
2023-08-15T15:06:59.017Z,71.40
2023-08-15T15:09:26.921Z,60.70
2023-08-15T15:11:54.698Z,64.70
2023-08-15T15:14:22.838Z,78.07
2023-08-15T15:16:51.988Z,84.97
2023-08-15T15:19:19.784Z,72.32
2023-08-15T15:21:48.640Z,62.75
2023-08-15T15:24:16.701Z,55.30
2023-08-15T15:26:45.396Z,57.60
2023-08-15T15:29:13.530Z,82.88
2023-08-15T15:31:41.445Z,97.78
2023-08-15T15:34:10.840Z,126.60
2023-08-15T15:36:38.928Z,121.70
2023-08-15T15:39:06.712Z,110.90
2023-08-15T15:41:34.718Z,97.90
2023-08-15T15:44:02.447Z,76.53
2023-08-15T15:46:37.872Z,59.97
2023-08-15T15:49:11.024Z,57.35
2023-08-15T15:51:39.487Z,85.55
2023-08-15T15:54:08.115Z,122.35
2023-08-15T15:56:36.097Z,135.65
2023-08-15T15:59:06.564Z,186.80
2023-08-15T16:01:34.763Z,177.25
2023-08-15T16:04:02.988Z,148.38
2023-08-15T16:06:32.878Z,140.82
2023-08-15T16:09:00.654Z,123.13
2023-08-15T16:11:28.441Z,102.63
2023-08-15T16:13:56.274Z,86.13
2023-08-15T16:16:24.088Z,67.05
2023-08-15T16:18:51.947Z,51.95
2023-08-15T16:21:21.800Z,44.70
2023-08-15T16:23:51.811Z,39.53
2023-08-15T16:26:20.522Z,45.00
2023-08-15T16:28:48.861Z,38.50
2023-08-15T16:31:16.980Z,33.33
2023-08-15T16:33:44.906Z,28.20
2023-08-15T16:36:12.663Z,19.15
2023-08-15T16:38:40.921Z,17.30
2023-08-15T16:41:10.057Z,15.43
2023-08-15T16:43:38.401Z,9.75
2023-08-15T16:46:06.340Z,13.35
2023-08-15T16:48:35.581Z,9.43
2023-08-15T16:51:03.621Z,10.48
2023-08-15T16:53:31.515Z,29.08
2023-08-15T16:55:59.335Z,58.15
2023-08-15T16:58:28.473Z,63.38
2023-08-15T17:00:56.312Z,47.83
2023-08-15T17:03:24.703Z,39.58
2023-08-15T17:05:52.589Z,30.45
2023-08-15T17:08:20.542Z,30.00
2023-08-15T17:10:48.301Z,77.18
2023-08-15T17:13:16.068Z,67.15
2023-08-15T17:15:47.353Z,55.17
2023-08-15T17:18:15.110Z,42.17
2023-08-15T17:20:43.029Z,34.65
2023-08-15T17:23:11.349Z,26.77
2023-08-15T17:25:39.219Z,21.55
2023-08-15T17:28:08.133Z,17.50
2023-08-15T17:30:36.377Z,13.65
2023-08-15T17:33:06.957Z,10.85
2023-08-15T17:35:34.756Z,10.63
2023-08-15T17:38:02.550Z,8.98
2023-08-15T17:40:30.376Z,6.18
2023-08-15T17:42:58.263Z,4.65
2023-08-15T17:45:26.353Z,5.68
2023-08-15T17:47:54.133Z,2.97
2023-08-15T17:50:23.467Z,3.00
2023-08-15T17:52:51.561Z,4.45
2023-08-15T17:55:19.335Z,2.50
2023-08-15T17:57:48.239Z,3.97
2023-08-15T18:00:17.510Z,1.77
2023-08-15T18:02:45.708Z,2.30
2023-08-15T18:05:15.576Z,3.72
2023-08-15T18:07:44.787Z,2.55
2023-08-15T18:10:12.679Z,1.65
2023-08-15T18:12:40.470Z,3.00
2023-08-15T18:15:11.282Z,159.43
2023-08-15T18:17:39.556Z,73.15
2023-08-15T18:20:08.295Z,105.85
2023-08-15T18:22:38.825Z,123.85
2023-08-15T18:25:09.372Z,70.47
2023-08-15T18:27:37.654Z,53.10
2023-08-15T18:30:06.757Z,39.45
2023-08-15T18:32:34.679Z,31.42
2023-08-15T18:35:02.808Z,28.00
2023-08-15T18:37:30.676Z,18.40
2023-08-15T18:39:58.419Z,16.00
2023-08-15T18:42:27.539Z,29.60
2023-08-15T18:44:55.259Z,128.65
2023-08-15T18:47:23.038Z,109.03
2023-08-15T18:49:50.779Z,65.88
2023-08-15T18:52:18.499Z,43.90
2023-08-15T18:54:46.365Z,27.73
2023-08-15T18:57:14.221Z,20.33
2023-08-15T18:59:43.721Z,14.50
2023-08-15T19:02:11.508Z,11.32
2023-08-15T19:04:39.360Z,7.97
2023-08-15T19:07:07.249Z,9.68
2023-08-15T19:09:35.009Z,6.28
2023-08-15T19:12:03.252Z,5.47
2023-08-15T19:14:31.089Z,7.72
2023-08-15T19:17:00.171Z,8.35
2023-08-15T19:19:28.085Z,3.33
2023-08-15T19:21:55.853Z,6.20
2023-08-15T19:24:23.763Z,3.58
2023-08-15T19:26:51.611Z,4.75
2023-08-15T19:29:19.334Z,5.45
2023-08-15T19:31:47.213Z,6.32
2023-08-15T19:34:17.696Z,4.70
2023-08-15T19:36:45.403Z,4.45
2023-08-15T19:39:13.364Z,3.28
2023-08-15T19:41:41.710Z,6.35
2023-08-15T19:44:09.489Z,2.42
2023-08-15T19:46:37.866Z,11.90
2023-08-15T19:49:06.791Z,101.63
2023-08-15T19:51:35.894Z,112.25
2023-08-15T19:54:03.805Z,102.10
2023-08-15T19:56:31.594Z,90.55
2023-08-15T19:58:59.334Z,133.00
2023-08-15T20:01:27.195Z,140.98
2023-08-15T20:03:54.971Z,112.60
2023-08-15T20:06:22.672Z,86.45
2023-08-15T20:08:51.785Z,57.97
2023-08-15T20:11:19.520Z,48.70
2023-08-15T20:13:47.267Z,32.95
2023-08-15T20:16:15.296Z,45.42
2023-08-15T20:18:43.197Z,98.40
2023-08-15T20:21:10.950Z,88.25
2023-08-15T20:23:39.657Z,69.00
2023-08-15T20:26:09.353Z,48.55
2023-08-15T20:28:37.400Z,42.83
2023-08-15T20:31:05.830Z,28.40
2023-08-15T20:33:32.638Z,92.80
2023-08-15T20:36:00.361Z,113.05
2023-08-15T20:38:28.964Z,86.82
2023-08-15T20:40:56.992Z,75.32
2023-08-15T20:43:26.163Z,53.95
2023-08-15T20:45:54.049Z,43.33
2023-08-15T20:48:23.016Z,35.40
2023-08-15T20:50:50.825Z,73.95
2023-08-15T20:53:18.541Z,163.32
2023-08-15T20:55:46.380Z,223.77
2023-08-15T20:58:14.111Z,199.32
2023-08-15T21:00:44.981Z,152.75
2023-08-15T21:03:14.782Z,119.33
2023-08-15T21:05:43.590Z,91.07
2023-08-15T21:08:11.287Z,64.53
2023-08-15T21:10:39.238Z,48.33
2023-08-15T21:13:07.247Z,37.38
2023-08-15T21:15:35.799Z,31.52
2023-08-15T21:18:05.352Z,22.65
2023-08-15T21:20:33.126Z,21.13
2023-08-15T21:23:00.893Z,14.75
2023-08-15T21:25:28.650Z,10.93
2023-08-15T21:27:56.469Z,11.32
2023-08-15T21:30:24.309Z,8.82
2023-08-15T21:32:52.201Z,6.35
2023-08-15T21:35:21.343Z,7.32
2023-08-15T21:37:49.182Z,6.90
2023-08-15T21:40:17.083Z,6.80
2023-08-15T21:42:44.818Z,3.60
2023-08-15T21:45:12.686Z,31.98
2023-08-15T21:47:40.685Z,71.38
2023-08-15T21:50:10.546Z,100.93
2023-08-15T21:52:39.656Z,79.07
2023-08-15T21:55:08.314Z,62.75
2023-08-15T21:57:36.131Z,99.10
2023-08-15T22:00:05.533Z,95.57
2023-08-15T22:02:40.093Z,73.80
2023-08-15T22:05:09.850Z,53.90
2023-08-15T22:07:39.485Z,45.58
2023-08-15T22:10:09.469Z,59.17
2023-08-15T22:12:37.959Z,89.88
2023-08-15T22:15:06.972Z,110.45
2023-08-15T22:17:45.546Z,95.65
2023-08-15T22:20:14.806Z,88.80
2023-08-15T22:22:44.302Z,209.45
2023-08-15T22:25:12.165Z,269.30
2023-08-15T22:27:40.013Z,249.75
2023-08-15T22:30:10.051Z,203.30
2023-08-15T22:32:38.215Z,148.23
2023-08-15T22:35:06.829Z,121.45
2023-08-15T22:37:34.667Z,88.72
2023-08-15T22:40:05.107Z,71.50
2023-08-15T22:42:33.861Z,103.53
2023-08-15T22:45:01.656Z,141.63
2023-08-15T22:47:29.520Z,197.18
2023-08-15T22:49:57.373Z,218.20
2023-08-15T22:52:25.183Z,198.93
2023-08-15T22:54:53.431Z,146.38
2023-08-15T22:57:22.657Z,109.75
2023-08-15T22:59:50.597Z,88.97
2023-08-15T23:02:18.386Z,65.07
2023-08-15T23:04:46.339Z,46.72
2023-08-15T23:07:14.460Z,34.88
2023-08-15T23:09:42.222Z,28.70
2023-08-15T23:12:10.256Z,23.65
2023-08-15T23:14:39.346Z,16.75
2023-08-15T23:17:07.239Z,13.52
2023-08-15T23:19:34.983Z,11.25
2023-08-15T23:22:04.069Z,9.52
2023-08-15T23:24:31.861Z,9.63
2023-08-15T23:27:00.646Z,8.40
2023-08-15T23:29:28.773Z,8.98
2023-08-15T23:31:59.716Z,6.20
2023-08-15T23:34:27.845Z,5.35
2023-08-15T23:36:55.795Z,6.70
2023-08-15T23:39:23.654Z,5.50
2023-08-15T23:41:51.549Z,8.48
2023-08-15T23:44:19.774Z,7.53
2023-08-15T23:46:48.619Z,4.72
2023-08-15T23:49:18.569Z,4.78
2023-08-15T23:51:48.784Z,6.28
2023-08-15T23:54:16.830Z,5.97
2023-08-15T23:56:44.570Z,5.38
2023-08-15T23:59:12.385Z,5.75
